Terminal Aerodrome Forecast
Issued by NWS

Home | Current Version | Previous Version | Text Only | Print | Product List | Glossary On
Versions: 1 2 3 4 5 6 7 8 9 10 11 12 13 14 15
026
FTUS45 KABQ 230538
TAFROW
TAF
KROW 230538Z 2306/2406 15007KT P6SM BKN060
      TEMPO 2306/2310 VRB20G30KT 5SM -TSRA BKN030CB
     FM231000 15006KT P6SM BKN035
     FM231400 15013KT P6SM SCT040
     FM231900 16015G22KT P6SM SCT070
     FM240300 15016G24KT P6SM VCTS BKN060CB=

USA.gov is the U.S. government's official web portal to all federal, state and local government web resources and services.